createdAt,value
2022-07-28T00:02:25.757Z,17.30
2022-07-28T00:04:52.475Z,17.27
2022-07-28T00:07:19.873Z,17.32
2022-07-28T00:09:46.463Z,17.27
2022-07-28T00:12:13.026Z,17.27
2022-07-28T00:14:39.598Z,17.23
2022-07-28T00:17:06.261Z,17.28
2022-07-28T00:19:33.039Z,17.27
2022-07-28T00:21:59.687Z,17.21
2022-07-28T00:24:26.407Z,17.22
2022-07-28T00:26:52.968Z,17.22
2022-07-28T00:29:19.687Z,17.19
2022-07-28T00:31:46.385Z,17.24
2022-07-28T00:34:13.203Z,17.26
2022-07-28T00:36:40.008Z,17.22
2022-07-28T00:39:07.752Z,17.14
2022-07-28T00:41:34.520Z,17.16
2022-07-28T00:44:01.104Z,17.19
2022-07-28T00:46:28.509Z,17.25
2022-07-28T00:48:55.412Z,17.27
2022-07-28T00:51:24.799Z,17.22
2022-07-28T00:53:52.674Z,17.26
2022-07-28T00:56:20.158Z,17.18
2022-07-28T00:58:47.489Z,17.20
2022-07-28T01:01:17.615Z,17.19
2022-07-28T01:03:47.201Z,17.17
2022-07-28T01:06:22.969Z,17.09
2022-07-28T01:08:58.647Z,17.09
2022-07-28T01:11:43.585Z,17.13
2022-07-28T01:14:22.613Z,17.04
2022-07-28T01:17:14.222Z,17.07
2022-07-28T01:19:51.988Z,17.04
2022-07-28T01:22:22.799Z,16.97
2022-07-28T01:25:07.671Z,16.95
2022-07-28T01:28:01.672Z,16.90
2022-07-28T01:30:46.233Z,16.95
2022-07-28T01:33:25.261Z,16.94
2022-07-28T01:35:56.418Z,16.86
2022-07-28T01:38:24.428Z,16.85
2022-07-28T01:40:53.582Z,16.83
2022-07-28T01:43:24.867Z,16.85
2022-07-28T01:45:54.856Z,16.89
2022-07-28T01:48:24.874Z,16.88
2022-07-28T01:50:53.711Z,16.86
2022-07-28T01:53:22.673Z,16.78
2022-07-28T01:55:51.027Z,16.85
2022-07-28T01:58:20.342Z,16.76
2022-07-28T02:00:51.405Z,16.72
2022-07-28T02:03:20.434Z,16.73
2022-07-28T02:05:50.272Z,16.63
2022-07-28T02:08:20.247Z,16.65
2022-07-28T02:11:09.183Z,16.68
2022-07-28T02:13:38.059Z,16.73
2022-07-28T02:16:08.419Z,16.71
2022-07-28T02:18:40.422Z,16.68
2022-07-28T02:21:08.025Z,16.58
2022-07-28T02:23:35.714Z,16.55
2022-07-28T02:26:08.453Z,16.51
2022-07-28T02:28:36.310Z,16.58
2022-07-28T02:31:08.984Z,16.51
2022-07-28T02:33:58.997Z,16.45
2022-07-28T02:36:30.414Z,16.44
2022-07-28T02:39:03.509Z,16.45
2022-07-28T02:41:33.526Z,16.37
2022-07-28T02:44:03.852Z,16.32
2022-07-28T02:46:40.851Z,16.46
2022-07-28T02:49:13.912Z,16.47
2022-07-28T02:51:43.377Z,16.44
2022-07-28T02:54:12.467Z,16.33
2022-07-28T02:56:41.641Z,16.36
2022-07-28T02:59:21.073Z,16.40
2022-07-28T03:01:49.581Z,16.31
2022-07-28T03:04:17.643Z,16.30
2022-07-28T03:06:44.806Z,16.20
2022-07-28T03:09:11.567Z,16.18
2022-07-28T03:11:52.713Z,16.11
2022-07-28T03:14:19.282Z,16.13
2022-07-28T03:16:46.074Z,16.10
2022-07-28T03:19:12.671Z,16.09
2022-07-28T03:21:41.315Z,16.12
2022-07-28T03:24:10.549Z,16.07
2022-07-28T03:26:43.505Z,16.02
2022-07-28T03:29:11.105Z,16.07
2022-07-28T03:31:40.554Z,16.01
2022-07-28T03:34:07.578Z,16.00
2022-07-28T03:36:42.865Z,16.01
2022-07-28T03:39:12.023Z,16.02
2022-07-28T03:41:42.222Z,16.11
2022-07-28T03:44:11.121Z,16.22
2022-07-28T03:46:44.702Z,16.10
2022-07-28T03:49:11.402Z,16.07
2022-07-28T03:51:38.125Z,16.09
2022-07-28T03:54:04.748Z,16.10
2022-07-28T03:56:31.958Z,16.07
2022-07-28T03:58:58.519Z,16.13
2022-07-28T04:01:25.204Z,15.99
2022-07-28T04:03:51.874Z,15.97
2022-07-28T04:06:18.751Z,16.00
2022-07-28T04:08:45.352Z,16.11
2022-07-28T04:11:12.667Z,16.16
2022-07-28T04:13:39.328Z,16.28
2022-07-28T04:16:07.202Z,16.35
2022-07-28T04:18:34.526Z,16.33
2022-07-28T04:21:01.214Z,16.20
2022-07-28T04:23:28.117Z,16.27
2022-07-28T04:25:55.303Z,16.12
2022-07-28T04:28:22.370Z,16.13
2022-07-28T04:30:48.986Z,16.34
2022-07-28T04:33:15.688Z,16.36
2022-07-28T04:35:42.265Z,16.34
2022-07-28T04:38:08.921Z,16.29
2022-07-28T04:40:35.594Z,16.28
2022-07-28T04:43:03.790Z,16.29
2022-07-28T04:45:30.614Z,16.30
2022-07-28T04:47:57.210Z,16.21
2022-07-28T04:50:23.869Z,16.19
2022-07-28T04:52:57.466Z,16.13
2022-07-28T04:55:24.696Z,16.17
2022-07-28T04:57:51.267Z,16.17
2022-07-28T05:00:18.063Z,16.04
2022-07-28T05:02:46.230Z,16.13
2022-07-28T05:05:13.126Z,16.13
2022-07-28T05:07:40.644Z,16.11
2022-07-28T05:10:09.614Z,16.05
2022-07-28T05:12:36.324Z,16.08
2022-07-28T05:15:04.668Z,16.05
2022-07-28T05:17:31.193Z,16.05
2022-07-28T05:19:57.831Z,16.09
2022-07-28T05:22:24.428Z,16.09
2022-07-28T05:24:51.070Z,16.08
2022-07-28T05:27:17.696Z,16.04
2022-07-28T05:29:47.797Z,16.11
2022-07-28T05:32:16.789Z,16.10
2022-07-28T05:34:45.355Z,16.23
2022-07-28T05:37:12.150Z,16.26
2022-07-28T05:39:38.918Z,16.41
2022-07-28T05:42:05.696Z,16.50
2022-07-28T05:44:37.630Z,16.60
2022-07-28T05:47:05.722Z,16.65
2022-07-28T05:49:32.433Z,16.77
2022-07-28T05:51:59.347Z,16.79
2022-07-28T05:54:26.784Z,16.75
2022-07-28T05:56:53.647Z,16.89
2022-07-28T05:59:20.233Z,17.04
2022-07-28T06:01:46.937Z,17.15
2022-07-28T06:04:29.648Z,17.15
2022-07-28T06:06:56.539Z,17.28
2022-07-28T06:09:23.182Z,17.33
2022-07-28T06:11:50.663Z,17.29
2022-07-28T06:14:18.119Z,17.33
2022-07-28T06:16:45.308Z,17.39
2022-07-28T06:19:12.127Z,17.34
2022-07-28T06:21:38.675Z,17.49
2022-07-28T06:24:07.161Z,17.64
2022-07-28T06:26:34.565Z,17.64
2022-07-28T06:29:01.191Z,17.91
2022-07-28T06:31:27.887Z,18.04
2022-07-28T06:33:54.453Z,18.12
2022-07-28T06:36:21.157Z,18.11
2022-07-28T06:38:47.748Z,18.06
2022-07-28T06:41:14.437Z,18.06
2022-07-28T06:43:40.992Z,18.08
2022-07-28T06:46:07.679Z,18.13
2022-07-28T06:48:37.692Z,18.24
2022-07-28T06:51:04.800Z,18.30
2022-07-28T06:53:33.892Z,18.38
2022-07-28T06:56:01.167Z,18.43
2022-07-28T06:58:27.763Z,18.46
2022-07-28T07:00:54.827Z,18.48
2022-07-28T07:03:21.477Z,18.44
2022-07-28T07:05:51.607Z,18.47
2022-07-28T07:08:20.851Z,18.52
2022-07-28T07:10:47.613Z,18.59
2022-07-28T07:13:14.298Z,18.62
2022-07-28T07:15:41.107Z,18.69
2022-07-28T07:18:07.977Z,18.72
2022-07-28T07:20:34.555Z,18.66
2022-07-28T07:23:01.278Z,18.66
2022-07-28T07:25:27.911Z,18.71
2022-07-28T07:27:54.757Z,18.72
2022-07-28T07:30:22.183Z,18.81
2022-07-28T07:32:49.249Z,18.93
2022-07-28T07:35:15.972Z,19.29
2022-07-28T07:37:42.615Z,19.31
2022-07-28T07:40:10.067Z,19.36
2022-07-28T07:42:37.188Z,19.42
2022-07-28T07:45:04.180Z,19.45
2022-07-28T07:47:31.186Z,19.56
2022-07-28T07:49:57.799Z,19.52
2022-07-28T07:52:24.433Z,19.56
2022-07-28T07:54:50.993Z,19.64
2022-07-28T07:57:17.564Z,19.89
2022-07-28T07:59:44.119Z,20.11
2022-07-28T08:02:10.792Z,20.35
2022-07-28T08:04:38.399Z,20.33
2022-07-28T08:07:06.110Z,20.51
2022-07-28T08:09:33.622Z,20.54
2022-07-28T08:12:00.205Z,20.66
2022-07-28T08:14:26.898Z,20.70
2022-07-28T08:16:56.341Z,20.98
2022-07-28T08:19:23.089Z,21.18
2022-07-28T08:21:50.406Z,21.21
2022-07-28T08:24:17.760Z,21.25
2022-07-28T08:27:01.808Z,21.17
2022-07-28T08:29:28.471Z,21.15
2022-07-28T08:31:55.130Z,21.22
2022-07-28T08:34:31.689Z,21.17
2022-07-28T08:37:01.570Z,21.56
2022-07-28T08:39:28.547Z,21.64
2022-07-28T08:42:06.136Z,21.74
2022-07-28T08:44:51.559Z,21.72
2022-07-28T08:47:20.019Z,21.80
2022-07-28T08:49:48.476Z,21.85
2022-07-28T08:52:15.319Z,21.84
2022-07-28T08:54:45.219Z,21.91
2022-07-28T08:57:17.920Z,21.91
2022-07-28T08:59:46.563Z,22.07
2022-07-28T09:02:14.729Z,21.94
2022-07-28T09:04:42.311Z,22.00
2022-07-28T09:07:10.814Z,21.82
2022-07-28T09:09:38.493Z,21.90
2022-07-28T09:12:05.888Z,21.92
2022-07-28T09:14:33.625Z,21.83
2022-07-28T09:17:05.463Z,21.83
2022-07-28T09:19:34.115Z,21.79
2022-07-28T09:22:02.952Z,21.95
2022-07-28T09:24:39.400Z,22.18
2022-07-28T09:27:16.043Z,22.14
2022-07-28T09:29:48.467Z,22.34
2022-07-28T09:32:16.981Z,22.50
2022-07-28T09:34:46.872Z,22.48
2022-07-28T09:37:27.700Z,22.60
2022-07-28T09:39:59.559Z,22.95
2022-07-28T09:42:44.435Z,22.86
2022-07-28T09:45:26.504Z,22.65
2022-07-28T09:48:19.640Z,22.74
2022-07-28T09:50:46.311Z,22.81
2022-07-28T09:53:27.323Z,23.05
2022-07-28T09:56:02.933Z,23.10
2022-07-28T09:58:30.581Z,22.97
2022-07-28T10:01:04.349Z,23.05
2022-07-28T10:03:32.993Z,22.86
2022-07-28T10:06:04.937Z,22.78
2022-07-28T10:08:41.932Z,22.86
2022-07-28T10:11:09.360Z,22.84
2022-07-28T10:13:36.874Z,22.85
2022-07-28T10:16:10.809Z,23.10
2022-07-28T10:18:39.311Z,23.05
2022-07-28T10:21:13.741Z,22.88
2022-07-28T10:23:41.545Z,22.84
2022-07-28T10:26:13.157Z,22.67
2022-07-28T10:28:46.687Z,22.74
2022-07-28T10:31:17.487Z,23.00
2022-07-28T10:33:48.570Z,23.20
2022-07-28T10:36:19.161Z,23.33
2022-07-28T10:38:46.199Z,23.30
2022-07-28T10:41:15.005Z,23.35
2022-07-28T10:43:45.556Z,23.51
2022-07-28T10:46:16.047Z,23.69
2022-07-28T10:48:43.941Z,23.64
2022-07-28T10:51:11.441Z,23.50
2022-07-28T10:53:49.110Z,23.56
2022-07-28T10:56:35.759Z,23.68
2022-07-28T10:59:30.712Z,23.73
2022-07-28T11:01:57.542Z,23.76
2022-07-28T11:04:47.775Z,23.76
2022-07-28T11:07:18.676Z,23.46
2022-07-28T11:09:49.047Z,23.45
2022-07-28T11:12:16.292Z,23.51
2022-07-28T11:14:43.624Z,23.61
2022-07-28T11:17:11.259Z,23.43
2022-07-28T11:19:42.539Z,23.48
2022-07-28T11:22:22.304Z,23.72
2022-07-28T11:25:19.043Z,23.97
2022-07-28T11:27:51.543Z,23.96
2022-07-28T11:30:18.656Z,23.94
2022-07-28T11:32:51.607Z,23.74
2022-07-28T11:35:26.685Z,23.86
2022-07-28T11:38:02.582Z,24.04
2022-07-28T11:40:32.790Z,24.04
2022-07-28T11:43:35.638Z,23.97
2022-07-28T11:46:10.390Z,23.86
2022-07-28T11:48:44.655Z,24.01
2022-07-28T11:51:12.713Z,24.32
2022-07-28T11:53:45.029Z,24.34
2022-07-28T11:56:24.003Z,24.45
2022-07-28T11:58:58.274Z,24.38
2022-07-28T12:01:25.069Z,24.65
2022-07-28T12:03:59.273Z,24.95
2022-07-28T12:06:36.685Z,25.08
2022-07-28T12:09:06.118Z,24.90
2022-07-28T12:11:35.051Z,24.74
2022-07-28T12:14:07.230Z,24.88
2022-07-28T12:16:36.910Z,24.91
2022-07-28T12:19:05.414Z,24.98
2022-07-28T12:21:46.517Z,24.78
2022-07-28T12:24:20.262Z,25.06
2022-07-28T12:26:49.923Z,25.09
2022-07-28T12:29:19.729Z,24.98
2022-07-28T12:31:59.686Z,25.13
2022-07-28T12:34:28.811Z,25.27
2022-07-28T12:37:03.610Z,25.14
2022-07-28T12:39:34.000Z,25.09
2022-07-28T12:42:04.263Z,24.98
2022-07-28T12:44:46.947Z,24.94
2022-07-28T12:47:15.464Z,25.01
2022-07-28T12:49:43.690Z,25.00
2022-07-28T12:52:17.030Z,24.96
2022-07-28T12:54:44.492Z,24.86
2022-07-28T12:57:50.564Z,25.01
2022-07-28T13:00:20.423Z,25.10
2022-07-28T13:02:48.767Z,24.98
2022-07-28T13:05:32.528Z,24.84
2022-07-28T13:08:04.924Z,24.90
2022-07-28T13:10:32.196Z,24.81
2022-07-28T13:13:08.495Z,24.95
2022-07-28T13:15:35.074Z,25.16
2022-07-28T13:18:02.008Z,25.31
2022-07-28T13:20:28.684Z,25.44
2022-07-28T13:22:57.260Z,25.36
2022-07-28T13:25:23.972Z,25.62
2022-07-28T13:27:55.743Z,25.47
2022-07-28T13:30:23.559Z,25.50
2022-07-28T13:32:50.398Z,25.57
2022-07-28T13:35:18.884Z,25.46
2022-07-28T13:37:46.091Z,25.31
2022-07-28T13:40:12.988Z,25.48
2022-07-28T13:42:39.574Z,25.51
2022-07-28T13:45:06.749Z,25.54
2022-07-28T13:47:35.745Z,25.41
2022-07-28T13:50:07.243Z,25.56
2022-07-28T13:52:37.487Z,25.82
2022-07-28T13:55:06.173Z,25.82
2022-07-28T13:57:36.518Z,25.89
2022-07-28T14:00:07.542Z,25.94
2022-07-28T14:02:35.654Z,25.80
2022-07-28T14:05:02.609Z,25.72
2022-07-28T14:07:29.253Z,25.91
2022-07-28T14:09:55.811Z,25.81
2022-07-28T14:12:22.448Z,25.70
2022-07-28T14:14:51.875Z,25.72
2022-07-28T14:20:10.330Z,25.61
2022-07-28T14:22:36.993Z,25.50
2022-07-28T14:25:03.890Z,25.58
2022-07-28T14:27:30.524Z,25.63
2022-07-28T14:29:57.551Z,25.84
2022-07-28T14:32:24.355Z,25.86
2022-07-28T14:34:51.203Z,25.73
2022-07-28T14:37:20.131Z,25.87
2022-07-28T14:39:46.826Z,25.84
2022-07-28T14:42:13.447Z,25.75
2022-07-28T14:44:40.354Z,25.61
2022-07-28T14:47:07.442Z,25.81
2022-07-28T14:49:35.287Z,25.89
2022-07-28T14:52:02.757Z,25.73
2022-07-28T14:54:29.867Z,25.57
2022-07-28T14:56:56.595Z,25.55
2022-07-28T14:59:23.489Z,25.77
2022-07-28T15:01:50.417Z,25.87
2022-07-28T15:04:18.202Z,25.88
2022-07-28T15:06:45.336Z,25.76
2022-07-28T15:09:11.954Z,25.71
2022-07-28T15:11:39.706Z,25.77
2022-07-28T15:14:06.239Z,25.74
2022-07-28T15:16:33.032Z,25.59
2022-07-28T15:18:59.678Z,25.50
2022-07-28T15:21:26.279Z,25.46
2022-07-28T15:23:53.448Z,25.43
2022-07-28T15:26:20.061Z,25.48
2022-07-28T15:28:48.474Z,25.45
2022-07-28T15:31:18.173Z,25.52
2022-07-28T15:33:48.366Z,25.52
2022-07-28T15:36:22.868Z,25.56
2022-07-28T15:38:50.998Z,25.62
2022-07-28T15:41:18.331Z,25.64
2022-07-28T15:43:45.316Z,25.70
2022-07-28T15:46:13.416Z,25.57
2022-07-28T15:48:43.710Z,25.49
2022-07-28T15:51:11.131Z,25.48
2022-07-28T15:53:38.606Z,25.52
2022-07-28T15:56:05.497Z,25.46
2022-07-28T15:58:32.084Z,25.42
2022-07-28T16:00:59.356Z,25.34
2022-07-28T16:03:28.868Z,25.35
2022-07-28T16:05:55.893Z,25.41
2022-07-28T16:08:23.319Z,25.38
2022-07-28T16:10:52.380Z,25.43
2022-07-28T16:13:28.572Z,25.39
2022-07-28T16:16:09.643Z,25.39
2022-07-28T16:18:37.881Z,25.39
2022-07-28T16:21:04.921Z,25.26
2022-07-28T16:23:31.678Z,25.19
2022-07-28T16:25:59.231Z,25.26
2022-07-28T16:28:26.515Z,25.25
2022-07-28T16:30:53.840Z,25.25
2022-07-28T16:33:20.540Z,25.28
2022-07-28T16:35:47.117Z,25.34
2022-07-28T16:38:13.930Z,25.27
2022-07-28T16:40:40.863Z,25.22
2022-07-28T16:43:07.452Z,25.21
2022-07-28T16:45:35.370Z,25.22
2022-07-28T16:48:05.297Z,25.11
2022-07-28T16:50:33.103Z,25.13
2022-07-28T16:53:00.504Z,25.07
2022-07-28T16:55:27.332Z,25.03
2022-07-28T16:57:54.070Z,25.18
2022-07-28T17:00:21.352Z,25.15
2022-07-28T17:02:47.909Z,25.13
2022-07-28T17:05:14.601Z,25.16
2022-07-28T17:07:45.945Z,25.08
2022-07-28T17:10:14.659Z,25.13
2022-07-28T17:12:41.650Z,25.03
2022-07-28T17:15:22.380Z,25.06
2022-07-28T17:17:50.294Z,25.00
2022-07-28T17:20:17.058Z,25.11
2022-07-28T17:22:44.745Z,25.13
2022-07-28T17:27:58.426Z,24.98
2022-07-28T17:30:25.470Z,24.95
2022-07-28T17:32:52.930Z,24.95
2022-07-28T17:35:31.299Z,24.96
2022-07-28T17:38:01.299Z,24.93
2022-07-28T17:40:28.015Z,24.90
2022-07-28T17:42:54.697Z,24.88
2022-07-28T17:45:21.745Z,24.83
2022-07-28T17:47:48.348Z,24.87
2022-07-28T17:50:15.142Z,24.87
2022-07-28T17:52:42.718Z,24.79
2022-07-28T17:56:00.074Z,24.76
2022-07-28T17:58:30.941Z,24.80
2022-07-28T18:01:09.707Z,24.81
2022-07-28T18:03:57.608Z,24.72
2022-07-28T18:06:35.394Z,24.72
2022-07-28T18:09:06.602Z,24.75
2022-07-28T18:11:56.619Z,24.77
2022-07-28T18:14:28.650Z,24.66
2022-07-28T18:16:56.515Z,24.61
2022-07-28T18:19:23.210Z,24.61
2022-07-28T18:21:49.813Z,24.68
2022-07-28T18:24:17.029Z,24.59
2022-07-28T18:26:43.975Z,24.52
2022-07-28T18:29:10.502Z,24.56
2022-07-28T18:31:43.869Z,24.47
2022-07-28T18:34:13.510Z,24.41
2022-07-28T18:36:40.449Z,24.40
2022-07-28T18:39:07.061Z,24.39
2022-07-28T18:41:34.529Z,24.35
2022-07-28T18:44:13.822Z,24.33
2022-07-28T18:46:40.883Z,24.18
2022-07-28T18:49:07.676Z,24.29
2022-07-28T18:51:34.504Z,24.28
2022-07-28T18:54:01.106Z,24.23
2022-07-28T18:56:27.665Z,24.17
2022-07-28T18:58:56.021Z,24.15
2022-07-28T19:01:23.601Z,24.02
2022-07-28T19:03:50.209Z,24.05
2022-07-28T19:06:16.847Z,24.05
2022-07-28T19:08:43.438Z,24.01
2022-07-28T19:11:10.373Z,23.91
2022-07-28T19:13:36.954Z,23.87
2022-07-28T19:16:03.806Z,23.85
2022-07-28T19:18:30.358Z,23.76
2022-07-28T19:20:56.908Z,23.75
2022-07-28T19:23:24.399Z,23.72
2022-07-28T19:25:50.997Z,23.65
2022-07-28T19:28:17.589Z,23.61
2022-07-28T19:30:45.025Z,23.69
2022-07-28T19:33:14.647Z,23.64
2022-07-28T19:35:45.515Z,23.71
2022-07-28T19:38:13.347Z,23.68
2022-07-28T19:40:41.651Z,23.65
2022-07-28T19:43:08.450Z,23.56
2022-07-28T19:45:37.237Z,23.53
2022-07-28T19:48:04.104Z,23.57
2022-07-28T19:50:30.889Z,23.55
2022-07-28T19:52:57.857Z,23.68
2022-07-28T19:55:26.854Z,23.50
2022-07-28T19:57:55.944Z,23.51
2022-07-28T20:00:22.550Z,23.47
2022-07-28T20:02:49.184Z,23.42
2022-07-28T20:05:16.073Z,23.45
2022-07-28T20:07:42.781Z,23.30
2022-07-28T20:10:09.375Z,23.33
2022-07-28T20:12:36.962Z,23.35
2022-07-28T20:15:05.778Z,23.25
2022-07-28T20:17:38.568Z,23.33
2022-07-28T20:20:08.722Z,23.38
2022-07-28T20:22:36.195Z,23.30
2022-07-28T20:25:03.701Z,23.25
2022-07-28T20:27:30.356Z,23.23
2022-07-28T20:29:58.799Z,23.21
2022-07-28T20:32:25.729Z,23.36
2022-07-28T20:34:52.575Z,23.24
2022-07-28T20:37:29.078Z,23.17
2022-07-28T20:40:04.037Z,23.03
2022-07-28T20:42:30.712Z,23.05
2022-07-28T20:44:57.338Z,23.09
2022-07-28T20:47:25.971Z,23.07
2022-07-28T20:49:53.414Z,23.09
2022-07-28T20:52:20.009Z,23.14
2022-07-28T20:54:49.466Z,22.97
2022-07-28T20:57:20.290Z,23.06
2022-07-28T20:59:48.865Z,22.85
2022-07-28T21:02:15.582Z,22.90
2022-07-28T21:04:42.226Z,22.83
2022-07-28T21:07:10.210Z,22.98
2022-07-28T21:09:36.809Z,22.95
2022-07-28T21:12:03.690Z,22.91
2022-07-28T21:14:32.183Z,22.96
2022-07-28T21:16:59.085Z,22.82
2022-07-28T21:19:25.807Z,22.77
2022-07-28T21:21:52.560Z,22.82
2022-07-28T21:24:19.408Z,22.73
2022-07-28T21:26:46.336Z,22.81
2022-07-28T21:32:02.173Z,22.86
2022-07-28T21:34:34.351Z,22.79
2022-07-28T21:37:02.740Z,22.81
2022-07-28T21:39:29.429Z,22.70
2022-07-28T21:41:56.060Z,22.65
2022-07-28T21:44:22.888Z,22.63
2022-07-28T21:46:49.492Z,22.68
2022-07-28T21:49:16.397Z,22.62
2022-07-28T21:51:45.134Z,22.64
2022-07-28T21:54:12.337Z,22.59
2022-07-28T21:56:39.195Z,22.48
2022-07-28T21:59:05.765Z,22.53
2022-07-28T22:01:32.619Z,22.54
2022-07-28T22:03:59.260Z,22.49
2022-07-28T22:06:26.048Z,22.50
2022-07-28T22:08:54.177Z,22.42
2022-07-28T22:11:21.726Z,22.33
2022-07-28T22:13:48.460Z,22.37
2022-07-28T22:16:15.457Z,22.19
2022-07-28T22:18:42.159Z,22.21
2022-07-28T22:21:08.840Z,22.17
2022-07-28T22:23:35.510Z,22.21
2022-07-28T22:26:02.427Z,22.13
2022-07-28T22:28:30.684Z,22.10
2022-07-28T22:30:58.955Z,22.12
2022-07-28T22:33:36.508Z,22.16
2022-07-28T22:36:04.445Z,22.13
2022-07-28T22:38:31.561Z,22.03
2022-07-28T22:40:58.552Z,22.07
2022-07-28T22:43:25.253Z,21.99
2022-07-28T22:45:51.969Z,22.07
2022-07-28T22:48:18.882Z,21.99
2022-07-28T22:50:45.515Z,21.98
2022-07-28T22:53:12.146Z,21.93
2022-07-28T22:55:39.829Z,21.86
2022-07-28T22:58:06.462Z,21.90
2022-07-28T23:00:36.374Z,21.85
2022-07-28T23:03:04.384Z,21.85
2022-07-28T23:05:34.508Z,21.94
2022-07-28T23:08:01.054Z,21.84
2022-07-28T23:10:32.639Z,21.84
2022-07-28T23:12:59.886Z,21.80
2022-07-28T23:15:40.042Z,21.81
2022-07-28T23:18:13.578Z,21.82
2022-07-28T23:20:40.583Z,21.76
2022-07-28T23:23:07.435Z,21.78
2022-07-28T23:25:36.958Z,21.76
2022-07-28T23:28:03.684Z,21.73
2022-07-28T23:30:30.293Z,21.77
2022-07-28T23:32:56.906Z,21.80
2022-07-28T23:35:23.742Z,21.77
2022-07-28T23:37:50.365Z,21.78
2022-07-28T23:40:16.965Z,21.72
2022-07-28T23:42:43.498Z,21.70
2022-07-28T23:45:10.721Z,21.70
2022-07-28T23:47:37.339Z,21.60
2022-07-28T23:50:04.970Z,21.58
2022-07-28T23:52:31.589Z,21.59
2022-07-28T23:54:58.381Z,21.55
2022-07-28T23:57:24.957Z,21.65
2022-07-28T23:59:57.890Z,21.69
